sensor_id;sensor_type;location;lat;lon;timestamp;temperature;humidity
41058;DHT22;66768;48.884;2.258;2023-10-19T00:02:08;16.40;99.90
41058;DHT22;66768;48.884;2.258;2023-10-19T00:04:36;16.50;99.90
41058;DHT22;66768;48.884;2.258;2023-10-19T00:07:03;16.50;99.90
41058;DHT22;66768;48.884;2.258;2023-10-19T00:09:35;16.50;99.90
41058;DHT22;66768;48.884;2.258;2023-10-19T00:12:04;16.40;99.90
41058;DHT22;66768;48.884;2.258;2023-10-19T00:14:34;16.40;99.90
41058;DHT22;66768;48.884;2.258;2023-10-19T00:17:00;16.40;99.90
41058;DHT22;66768;48.884;2.258;2023-10-19T00:19:32;16.40;99.90
41058;DHT22;66768;48.884;2.258;2023-10-19T00:22:04;16.40;99.90
41058;DHT22;66768;48.884;2.258;2023-10-19T00:24:38;16.50;99.90
41058;DHT22;66768;48.884;2.258;2023-10-19T00:27:07;16.40;99.90
41058;DHT22;66768;48.884;2.258;2023-10-19T00:29:42;16.40;99.90
41058;DHT22;66768;48.884;2.258;2023-10-19T00:32:15;16.40;99.90
41058;DHT22;66768;48.884;2.258;2023-10-19T00:34:43;16.50;99.90
41058;DHT22;66768;48.884;2.258;2023-10-19T00:37:18;16.50;99.90
41058;DHT22;66768;48.884;2.258;2023-10-19T00:39:53;16.40;99.90
41058;DHT22;66768;48.884;2.258;2023-10-19T00:42:22;16.50;99.90
41058;DHT22;66768;48.884;2.258;2023-10-19T00:44:55;16.40;99.90
41058;DHT22;66768;48.884;2.258;2023-10-19T00:47:30;16.40;99.90
41058;DHT22;66768;48.884;2.258;2023-10-19T00:50:06;16.40;99.90
41058;DHT22;66768;48.884;2.258;2023-10-19T00:52:40;16.50;99.90
41058;DHT22;66768;48.884;2.258;2023-10-19T00:55:10;16.40;99.90
41058;DHT22;66768;48.884;2.258;2023-10-19T00:57:40;16.50;99.90
41058;DHT22;66768;48.884;2.258;2023-10-19T01:00:09;16.50;99.90
41058;DHT22;66768;48.884;2.258;2023-10-19T01:02:38;16.40;99.90
41058;DHT22;66768;48.884;2.258;2023-10-19T01:05:11;16.40;99.90
41058;DHT22;66768;48.884;2.258;2023-10-19T01:07:40;16.40;99.90
41058;DHT22;66768;48.884;2.258;2023-10-19T01:10:08;16.50;99.90
41058;DHT22;66768;48.884;2.258;2023-10-19T01:12:38;16.40;99.90
41058;DHT22;66768;48.884;2.258;2023-10-19T01:15:09;16.40;99.90
41058;DHT22;66768;48.884;2.258;2023-10-19T01:17:39;16.40;99.90
41058;DHT22;66768;48.884;2.258;2023-10-19T01:20:09;16.40;99.90
41058;DHT22;66768;48.884;2.258;2023-10-19T01:22:51;16.50;99.90
41058;DHT22;66768;48.884;2.258;2023-10-19T01:25:32;16.50;99.90
41058;DHT22;66768;48.884;2.258;2023-10-19T01:28:06;16.40;99.90
41058;DHT22;66768;48.884;2.258;2023-10-19T01:30:33;16.50;99.90
41058;DHT22;66768;48.884;2.258;2023-10-19T01:33:02;16.50;99.90
41058;DHT22;66768;48.884;2.258;2023-10-19T01:35:29;16.50;99.90
41058;DHT22;66768;48.884;2.258;2023-10-19T01:38:18;16.50;99.90
41058;DHT22;66768;48.884;2.258;2023-10-19T01:40:44;16.50;99.90
41058;DHT22;66768;48.884;2.258;2023-10-19T01:43:14;16.50;99.90
41058;DHT22;66768;48.884;2.258;2023-10-19T01:45:47;16.50;99.90
41058;DHT22;66768;48.884;2.258;2023-10-19T01:48:14;16.50;99.90
41058;DHT22;66768;48.884;2.258;2023-10-19T01:50:41;16.50;99.90
41058;DHT22;66768;48.884;2.258;2023-10-19T01:53:09;16.50;99.90
41058;DHT22;66768;48.884;2.258;2023-10-19T01:55:43;16.50;99.90
41058;DHT22;66768;48.884;2.258;2023-10-19T01:58:12;16.60;99.90
41058;DHT22;66768;48.884;2.258;2023-10-19T02:00:40;16.50;99.90
41058;DHT22;66768;48.884;2.258;2023-10-19T02:03:08;16.50;99.90
41058;DHT22;66768;48.884;2.258;2023-10-19T02:05:34;16.60;99.90
41058;DHT22;66768;48.884;2.258;2023-10-19T02:08:07;16.50;99.90
41058;DHT22;66768;48.884;2.258;2023-10-19T02:10:33;16.60;99.90
41058;DHT22;66768;48.884;2.258;2023-10-19T02:13:02;16.50;99.90
41058;DHT22;66768;48.884;2.258;2023-10-19T02:15:33;16.60;99.90
41058;DHT22;66768;48.884;2.258;2023-10-19T02:18:00;16.60;99.90
41058;DHT22;66768;48.884;2.258;2023-10-19T02:20:27;16.60;99.90
41058;DHT22;66768;48.884;2.258;2023-10-19T02:22:54;16.60;99.90
41058;DHT22;66768;48.884;2.258;2023-10-19T02:25:23;16.60;99.90
41058;DHT22;66768;48.884;2.258;2023-10-19T02:27:50;16.50;99.90
41058;DHT22;66768;48.884;2.258;2023-10-19T02:30:19;16.60;99.90
41058;DHT22;66768;48.884;2.258;2023-10-19T02:32:45;16.50;99.90
41058;DHT22;66768;48.884;2.258;2023-10-19T02:35:14;16.60;99.90
41058;DHT22;66768;48.884;2.258;2023-10-19T02:37:40;16.60;99.90
41058;DHT22;66768;48.884;2.258;2023-10-19T02:40:08;16.60;99.90
41058;DHT22;66768;48.884;2.258;2023-10-19T02:42:40;16.60;99.90
41058;DHT22;66768;48.884;2.258;2023-10-19T02:45:08;16.60;99.90
41058;DHT22;66768;48.884;2.258;2023-10-19T02:47:35;16.60;99.90
41058;DHT22;66768;48.884;2.258;2023-10-19T02:50:03;16.60;99.90
41058;DHT22;66768;48.884;2.258;2023-10-19T02:52:36;16.60;99.90
41058;DHT22;66768;48.884;2.258;2023-10-19T02:55:03;16.60;99.90
41058;DHT22;66768;48.884;2.258;2023-10-19T02:57:30;16.60;99.90
41058;DHT22;66768;48.884;2.258;2023-10-19T02:59:57;16.60;99.90
41058;DHT22;66768;48.884;2.258;2023-10-19T03:02:24;16.60;99.90
41058;DHT22;66768;48.884;2.258;2023-10-19T03:04:54;16.60;99.90
41058;DHT22;66768;48.884;2.258;2023-10-19T03:07:21;16.60;99.90
41058;DHT22;66768;48.884;2.258;2023-10-19T03:09:47;16.60;99.90
41058;DHT22;66768;48.884;2.258;2023-10-19T03:12:19;16.60;99.90
41058;DHT22;66768;48.884;2.258;2023-10-19T03:14:45;16.60;99.90
41058;DHT22;66768;48.884;2.258;2023-10-19T03:17:13;16.60;99.90
41058;DHT22;66768;48.884;2.258;2023-10-19T03:19:40;16.60;99.90
41058;DHT22;66768;48.884;2.258;2023-10-19T03:22:09;16.60;99.90
41058;DHT22;66768;48.884;2.258;2023-10-19T03:24:35;16.60;99.90
41058;DHT22;66768;48.884;2.258;2023-10-19T03:27:06;16.60;99.90
41058;DHT22;66768;48.884;2.258;2023-10-19T03:29:38;16.60;99.90
41058;DHT22;66768;48.884;2.258;2023-10-19T03:32:06;16.50;99.90
41058;DHT22;66768;48.884;2.258;2023-10-19T03:34:34;16.60;99.90
41058;DHT22;66768;48.884;2.258;2023-10-19T03:37:01;16.50;99.90
41058;DHT22;66768;48.884;2.258;2023-10-19T03:39:33;16.50;99.90
41058;DHT22;66768;48.884;2.258;2023-10-19T03:42:03;16.50;99.90
41058;DHT22;66768;48.884;2.258;2023-10-19T03:44:31;16.50;99.90
41058;DHT22;66768;48.884;2.258;2023-10-19T03:47:09;16.50;99.90
41058;DHT22;66768;48.884;2.258;2023-10-19T03:49:39;16.50;99.90
41058;DHT22;66768;48.884;2.258;2023-10-19T03:52:07;16.50;99.90
41058;DHT22;66768;48.884;2.258;2023-10-19T03:54:48;16.50;99.90
41058;DHT22;66768;48.884;2.258;2023-10-19T03:57:17;16.50;99.90
41058;DHT22;66768;48.884;2.258;2023-10-19T03:59:48;16.50;99.90
41058;DHT22;66768;48.884;2.258;2023-10-19T04:02:18;16.50;99.90
41058;DHT22;66768;48.884;2.258;2023-10-19T04:04:46;16.50;99.90
41058;DHT22;66768;48.884;2.258;2023-10-19T04:07:16;16.50;99.90
41058;DHT22;66768;48.884;2.258;2023-10-19T04:09:48;16.50;99.90
41058;DHT22;66768;48.884;2.258;2023-10-19T04:12:33;16.50;99.90
41058;DHT22;66768;48.884;2.258;2023-10-19T04:15:05;16.50;99.90
41058;DHT22;66768;48.884;2.258;2023-10-19T04:17:36;16.40;99.90
41058;DHT22;66768;48.884;2.258;2023-10-19T04:20:05;16.40;99.90
41058;DHT22;66768;48.884;2.258;2023-10-19T04:22:44;16.40;99.90
41058;DHT22;66768;48.884;2.258;2023-10-19T04:25:13;16.50;99.90
41058;DHT22;66768;48.884;2.258;2023-10-19T04:27:41;16.40;99.90
41058;DHT22;66768;48.884;2.258;2023-10-19T04:30:09;16.50;99.90
41058;DHT22;66768;48.884;2.258;2023-10-19T04:32:41;16.50;99.90
41058;DHT22;66768;48.884;2.258;2023-10-19T04:35:08;16.40;99.90
41058;DHT22;66768;48.884;2.258;2023-10-19T04:37:35;16.50;99.90
41058;DHT22;66768;48.884;2.258;2023-10-19T04:40:02;16.50;99.90
41058;DHT22;66768;48.884;2.258;2023-10-19T04:42:34;16.50;99.90
41058;DHT22;66768;48.884;2.258;2023-10-19T04:45:02;16.50;99.90
41058;DHT22;66768;48.884;2.258;2023-10-19T04:47:30;16.50;99.90
41058;DHT22;66768;48.884;2.258;2023-10-19T04:50:00;16.50;99.90
41058;DHT22;66768;48.884;2.258;2023-10-19T04:52:27;16.50;99.90
41058;DHT22;66768;48.884;2.258;2023-10-19T04:54:54;16.50;99.90
41058;DHT22;66768;48.884;2.258;2023-10-19T04:57:21;16.50;99.90
41058;DHT22;66768;48.884;2.258;2023-10-19T04:59:50;16.40;99.90
41058;DHT22;66768;48.884;2.258;2023-10-19T05:02:16;16.50;99.90
41058;DHT22;66768;48.884;2.258;2023-10-19T05:04:43;16.40;99.90
41058;DHT22;66768;48.884;2.258;2023-10-19T05:07:11;16.40;99.90
41058;DHT22;66768;48.884;2.258;2023-10-19T05:09:42;16.40;99.90
41058;DHT22;66768;48.884;2.258;2023-10-19T05:12:09;16.40;99.90
41058;DHT22;66768;48.884;2.258;2023-10-19T05:14:37;16.40;99.90
41058;DHT22;66768;48.884;2.258;2023-10-19T05:17:05;16.40;99.90
41058;DHT22;66768;48.884;2.258;2023-10-19T05:19:35;16.40;99.90
41058;DHT22;66768;48.884;2.258;2023-10-19T05:22:04;16.40;99.90
41058;DHT22;66768;48.884;2.258;2023-10-19T05:24:31;16.40;99.90
41058;DHT22;66768;48.884;2.258;2023-10-19T05:26:58;16.40;99.90
41058;DHT22;66768;48.884;2.258;2023-10-19T05:29:25;16.40;99.90
41058;DHT22;66768;48.884;2.258;2023-10-19T05:31:53;16.40;99.90
41058;DHT22;66768;48.884;2.258;2023-10-19T05:34:21;16.40;99.90
41058;DHT22;66768;48.884;2.258;2023-10-19T05:36:49;16.40;99.90
41058;DHT22;66768;48.884;2.258;2023-10-19T05:39:18;16.40;99.90
41058;DHT22;66768;48.884;2.258;2023-10-19T05:41:46;16.40;99.90
41058;DHT22;66768;48.884;2.258;2023-10-19T05:44:13;16.40;99.90
41058;DHT22;66768;48.884;2.258;2023-10-19T05:46:40;16.40;99.90
41058;DHT22;66768;48.884;2.258;2023-10-19T05:49:07;16.40;99.90
41058;DHT22;66768;48.884;2.258;2023-10-19T05:51:35;16.40;99.90
41058;DHT22;66768;48.884;2.258;2023-10-19T05:54:02;16.40;99.90
41058;DHT22;66768;48.884;2.258;2023-10-19T05:56:30;16.40;99.90
41058;DHT22;66768;48.884;2.258;2023-10-19T05:58:57;16.40;99.90
41058;DHT22;66768;48.884;2.258;2023-10-19T06:01:24;16.40;99.90
41058;DHT22;66768;48.884;2.258;2023-10-19T06:03:52;16.40;99.90
41058;DHT22;66768;48.884;2.258;2023-10-19T06:06:19;16.40;99.90
41058;DHT22;66768;48.884;2.258;2023-10-19T06:08:47;16.50;99.90
41058;DHT22;66768;48.884;2.258;2023-10-19T06:11:15;16.40;99.90
41058;DHT22;66768;48.884;2.258;2023-10-19T06:13:42;16.40;99.90
41058;DHT22;66768;48.884;2.258;2023-10-19T06:16:08;16.40;99.90
41058;DHT22;66768;48.884;2.258;2023-10-19T06:18:35;16.40;99.90
41058;DHT22;66768;48.884;2.258;2023-10-19T06:21:02;16.40;99.90
41058;DHT22;66768;48.884;2.258;2023-10-19T06:23:29;16.40;99.90
41058;DHT22;66768;48.884;2.258;2023-10-19T06:25:58;16.40;99.90
41058;DHT22;66768;48.884;2.258;2023-10-19T06:28:29;16.40;99.90
41058;DHT22;66768;48.884;2.258;2023-10-19T06:30:59;16.40;99.90
41058;DHT22;66768;48.884;2.258;2023-10-19T06:33:26;16.40;99.90
41058;DHT22;66768;48.884;2.258;2023-10-19T06:35:54;16.40;99.90
41058;DHT22;66768;48.884;2.258;2023-10-19T06:38:21;16.40;99.90
41058;DHT22;66768;48.884;2.258;2023-10-19T06:40:48;16.40;99.90
41058;DHT22;66768;48.884;2.258;2023-10-19T06:43:16;16.40;99.90
41058;DHT22;66768;48.884;2.258;2023-10-19T06:45:44;16.40;99.90
41058;DHT22;66768;48.884;2.258;2023-10-19T06:48:11;16.40;99.90
41058;DHT22;66768;48.884;2.258;2023-10-19T06:50:38;16.30;99.90
41058;DHT22;66768;48.884;2.258;2023-10-19T06:53:05;16.40;99.90
41058;DHT22;66768;48.884;2.258;2023-10-19T06:55:32;16.30;99.90
41058;DHT22;66768;48.884;2.258;2023-10-19T06:57:59;16.40;99.90
41058;DHT22;66768;48.884;2.258;2023-10-19T07:00:28;16.40;99.90
41058;DHT22;66768;48.884;2.258;2023-10-19T07:02:58;16.40;99.90
41058;DHT22;66768;48.884;2.258;2023-10-19T07:05:26;16.40;99.90
41058;DHT22;66768;48.884;2.258;2023-10-19T07:07:56;16.40;99.90
41058;DHT22;66768;48.884;2.258;2023-10-19T07:10:25;16.40;99.90
41058;DHT22;66768;48.884;2.258;2023-10-19T07:12:53;16.50;99.90
41058;DHT22;66768;48.884;2.258;2023-10-19T07:15:22;16.50;99.90
41058;DHT22;66768;48.884;2.258;2023-10-19T07:17:52;16.50;99.90
41058;DHT22;66768;48.884;2.258;2023-10-19T07:20:20;16.50;99.90
41058;DHT22;66768;48.884;2.258;2023-10-19T07:22:52;16.50;99.90
41058;DHT22;66768;48.884;2.258;2023-10-19T07:25:19;16.50;99.90
41058;DHT22;66768;48.884;2.258;2023-10-19T07:27:48;16.50;99.90
41058;DHT22;66768;48.884;2.258;2023-10-19T07:30:15;16.50;99.90
41058;DHT22;66768;48.884;2.258;2023-10-19T07:32:47;16.50;99.90
41058;DHT22;66768;48.884;2.258;2023-10-19T07:35:18;16.60;99.90
41058;DHT22;66768;48.884;2.258;2023-10-19T07:37:45;16.50;99.90
41058;DHT22;66768;48.884;2.258;2023-10-19T07:40:13;16.60;99.90
41058;DHT22;66768;48.884;2.258;2023-10-19T07:42:40;16.60;99.90
41058;DHT22;66768;48.884;2.258;2023-10-19T07:45:08;16.60;99.90
41058;DHT22;66768;48.884;2.258;2023-10-19T07:47:37;16.60;99.90
41058;DHT22;66768;48.884;2.258;2023-10-19T07:50:07;16.60;99.90
41058;DHT22;66768;48.884;2.258;2023-10-19T07:52:39;16.70;99.90
41058;DHT22;66768;48.884;2.258;2023-10-19T07:55:06;16.80;99.90
41058;DHT22;66768;48.884;2.258;2023-10-19T07:57:33;16.80;99.90
41058;DHT22;66768;48.884;2.258;2023-10-19T08:00:01;16.80;99.90
41058;DHT22;66768;48.884;2.258;2023-10-19T08:02:29;16.90;99.90
41058;DHT22;66768;48.884;2.258;2023-10-19T08:04:56;16.90;99.90
41058;DHT22;66768;48.884;2.258;2023-10-19T08:07:23;17.00;99.90
41058;DHT22;66768;48.884;2.258;2023-10-19T08:09:53;17.00;99.90
41058;DHT22;66768;48.884;2.258;2023-10-19T08:12:24;17.00;99.90
41058;DHT22;66768;48.884;2.258;2023-10-19T08:14:52;17.00;99.90
41058;DHT22;66768;48.884;2.258;2023-10-19T08:17:18;17.00;99.90
41058;DHT22;66768;48.884;2.258;2023-10-19T08:19:45;17.00;99.90
41058;DHT22;66768;48.884;2.258;2023-10-19T08:22:12;17.00;99.90
41058;DHT22;66768;48.884;2.258;2023-10-19T08:24:40;17.00;99.90
41058;DHT22;66768;48.884;2.258;2023-10-19T08:27:10;17.00;99.90
41058;DHT22;66768;48.884;2.258;2023-10-19T08:29:37;17.10;99.90
41058;DHT22;66768;48.884;2.258;2023-10-19T08:32:04;17.10;99.90
41058;DHT22;66768;48.884;2.258;2023-10-19T08:34:34;17.00;99.90
41058;DHT22;66768;48.884;2.258;2023-10-19T08:37:02;17.10;99.90
41058;DHT22;66768;48.884;2.258;2023-10-19T08:39:30;17.10;99.90
41058;DHT22;66768;48.884;2.258;2023-10-19T08:42:02;17.20;99.90
41058;DHT22;66768;48.884;2.258;2023-10-19T08:44:31;17.20;99.90
41058;DHT22;66768;48.884;2.258;2023-10-19T08:46:58;17.20;99.90
41058;DHT22;66768;48.884;2.258;2023-10-19T08:49:26;17.30;99.90
41058;DHT22;66768;48.884;2.258;2023-10-19T08:51:59;17.30;99.90
41058;DHT22;66768;48.884;2.258;2023-10-19T08:54:27;17.30;99.90
41058;DHT22;66768;48.884;2.258;2023-10-19T08:56:53;17.40;99.90
41058;DHT22;66768;48.884;2.258;2023-10-19T08:59:21;17.40;99.90
41058;DHT22;66768;48.884;2.258;2023-10-19T09:01:50;17.40;99.90
41058;DHT22;66768;48.884;2.258;2023-10-19T09:04:17;17.50;99.90
41058;DHT22;66768;48.884;2.258;2023-10-19T09:06:44;17.50;99.90
41058;DHT22;66768;48.884;2.258;2023-10-19T09:09:11;17.60;99.90
41058;DHT22;66768;48.884;2.258;2023-10-19T09:11:42;17.60;99.90
41058;DHT22;66768;48.884;2.258;2023-10-19T09:14:09;17.60;99.90
41058;DHT22;66768;48.884;2.258;2023-10-19T09:16:38;17.60;99.90
41058;DHT22;66768;48.884;2.258;2023-10-19T09:19:06;17.60;99.90
41058;DHT22;66768;48.884;2.258;2023-10-19T09:21:34;17.60;99.90
41058;DHT22;66768;48.884;2.258;2023-10-19T09:24:01;17.60;99.90
41058;DHT22;66768;48.884;2.258;2023-10-19T09:26:28;17.60;99.90
41058;DHT22;66768;48.884;2.258;2023-10-19T09:28:55;17.70;99.90
41058;DHT22;66768;48.884;2.258;2023-10-19T09:31:21;17.70;99.90
41058;DHT22;66768;48.884;2.258;2023-10-19T09:33:50;17.80;99.90
41058;DHT22;66768;48.884;2.258;2023-10-19T09:36:20;17.80;99.90
41058;DHT22;66768;48.884;2.258;2023-10-19T09:38:50;17.90;99.90
41058;DHT22;66768;48.884;2.258;2023-10-19T09:41:19;17.90;99.90
41058;DHT22;66768;48.884;2.258;2023-10-19T09:43:47;17.90;99.90
41058;DHT22;66768;48.884;2.258;2023-10-19T09:46:21;17.90;99.90
41058;DHT22;66768;48.884;2.258;2023-10-19T09:48:49;17.90;99.90
41058;DHT22;66768;48.884;2.258;2023-10-19T09:51:19;17.90;99.90
41058;DHT22;66768;48.884;2.258;2023-10-19T09:53:49;17.90;99.90
41058;DHT22;66768;48.884;2.258;2023-10-19T09:56:21;17.90;99.90
41058;DHT22;66768;48.884;2.258;2023-10-19T09:58:50;18.00;99.90
41058;DHT22;66768;48.884;2.258;2023-10-19T10:01:18;18.00;99.90
41058;DHT22;66768;48.884;2.258;2023-10-19T10:03:48;18.00;99.90
41058;DHT22;66768;48.884;2.258;2023-10-19T10:06:17;18.00;99.90
41058;DHT22;66768;48.884;2.258;2023-10-19T10:08:54;18.00;99.90
41058;DHT22;66768;48.884;2.258;2023-10-19T10:11:23;18.00;99.90
41058;DHT22;66768;48.884;2.258;2023-10-19T10:13:52;18.10;99.90
41058;DHT22;66768;48.884;2.258;2023-10-19T10:16:22;18.10;99.90
41058;DHT22;66768;48.884;2.258;2023-10-19T10:18:50;18.10;99.90
41058;DHT22;66768;48.884;2.258;2023-10-19T10:21:18;18.10;99.90
41058;DHT22;66768;48.884;2.258;2023-10-19T10:23:48;18.10;99.90
41058;DHT22;66768;48.884;2.258;2023-10-19T10:26:18;18.20;99.90
41058;DHT22;66768;48.884;2.258;2023-10-19T10:28:48;18.20;99.90
41058;DHT22;66768;48.884;2.258;2023-10-19T10:31:20;18.20;99.90
41058;DHT22;66768;48.884;2.258;2023-10-19T10:33:49;18.20;99.90
41058;DHT22;66768;48.884;2.258;2023-10-19T10:36:18;18.20;99.90
41058;DHT22;66768;48.884;2.258;2023-10-19T10:38:46;18.30;99.90
41058;DHT22;66768;48.884;2.258;2023-10-19T10:41:24;18.30;99.90
41058;DHT22;66768;48.884;2.258;2023-10-19T10:43:54;18.30;99.90
41058;DHT22;66768;48.884;2.258;2023-10-19T10:46:22;18.30;99.90
41058;DHT22;66768;48.884;2.258;2023-10-19T10:48:49;18.30;99.90
41058;DHT22;66768;48.884;2.258;2023-10-19T10:51:21;18.30;99.90
41058;DHT22;66768;48.884;2.258;2023-10-19T10:53:49;18.30;99.90
41058;DHT22;66768;48.884;2.258;2023-10-19T10:56:17;18.40;99.90
41058;DHT22;66768;48.884;2.258;2023-10-19T10:58:45;18.40;99.90
41058;DHT22;66768;48.884;2.258;2023-10-19T11:01:13;18.40;99.90
41058;DHT22;66768;48.884;2.258;2023-10-19T11:03:40;18.40;99.90
41058;DHT22;66768;48.884;2.258;2023-10-19T11:06:08;18.40;99.90
41058;DHT22;66768;48.884;2.258;2023-10-19T11:08:36;18.40;99.90
41058;DHT22;66768;48.884;2.258;2023-10-19T11:11:07;18.40;99.90
41058;DHT22;66768;48.884;2.258;2023-10-19T11:13:37;18.40;99.90
41058;DHT22;66768;48.884;2.258;2023-10-19T11:16:07;18.50;99.90
41058;DHT22;66768;48.884;2.258;2023-10-19T11:18:36;18.40;99.90
41058;DHT22;66768;48.884;2.258;2023-10-19T11:21:06;18.50;99.90
41058;DHT22;66768;48.884;2.258;2023-10-19T11:23:36;18.50;99.90
41058;DHT22;66768;48.884;2.258;2023-10-19T11:26:03;18.50;99.90
41058;DHT22;66768;48.884;2.258;2023-10-19T11:28:31;18.50;99.90
41058;DHT22;66768;48.884;2.258;2023-10-19T11:31:12;18.50;99.90
41058;DHT22;66768;48.884;2.258;2023-10-19T11:33:40;18.50;99.90
41058;DHT22;66768;48.884;2.258;2023-10-19T11:36:07;18.50;99.90
41058;DHT22;66768;48.884;2.258;2023-10-19T11:38:34;18.60;99.90
41058;DHT22;66768;48.884;2.258;2023-10-19T11:41:03;18.60;99.90
41058;DHT22;66768;48.884;2.258;2023-10-19T11:43:30;18.60;99.90
41058;DHT22;66768;48.884;2.258;2023-10-19T11:45:56;18.70;99.90
41058;DHT22;66768;48.884;2.258;2023-10-19T11:48:25;18.70;99.90
41058;DHT22;66768;48.884;2.258;2023-10-19T11:50:52;18.80;99.90
41058;DHT22;66768;48.884;2.258;2023-10-19T11:53:19;18.80;99.90
41058;DHT22;66768;48.884;2.258;2023-10-19T11:55:46;18.80;99.90
41058;DHT22;66768;48.884;2.258;2023-10-19T11:58:14;18.90;99.90
41058;DHT22;66768;48.884;2.258;2023-10-19T12:00:40;18.90;99.90
41058;DHT22;66768;48.884;2.258;2023-10-19T12:03:09;18.90;99.90
41058;DHT22;66768;48.884;2.258;2023-10-19T12:05:37;18.90;99.90
41058;DHT22;66768;48.884;2.258;2023-10-19T12:08:05;18.90;99.90
41058;DHT22;66768;48.884;2.258;2023-10-19T12:10:32;18.90;99.90
41058;DHT22;66768;48.884;2.258;2023-10-19T12:13:01;18.90;99.90
41058;DHT22;66768;48.884;2.258;2023-10-19T12:15:30;18.90;99.90
41058;DHT22;66768;48.884;2.258;2023-10-19T12:17:57;18.90;99.90
41058;DHT22;66768;48.884;2.258;2023-10-19T12:20:23;18.90;99.90
41058;DHT22;66768;48.884;2.258;2023-10-19T12:22:53;18.90;99.90
41058;DHT22;66768;48.884;2.258;2023-10-19T12:25:20;18.90;99.90
41058;DHT22;66768;48.884;2.258;2023-10-19T12:27:54;19.00;99.90
41058;DHT22;66768;48.884;2.258;2023-10-19T12:30:21;19.00;99.90
41058;DHT22;66768;48.884;2.258;2023-10-19T12:32:51;19.10;99.90
41058;DHT22;66768;48.884;2.258;2023-10-19T12:35:18;19.50;99.90
41058;DHT22;66768;48.884;2.258;2023-10-19T12:37:50;19.70;99.90
41058;DHT22;66768;48.884;2.258;2023-10-19T12:40:19;19.70;99.90
41058;DHT22;66768;48.884;2.258;2023-10-19T12:42:56;19.70;99.90
41058;DHT22;66768;48.884;2.258;2023-10-19T12:45:28;19.70;99.90
41058;DHT22;66768;48.884;2.258;2023-10-19T12:48:02;19.70;99.90
41058;DHT22;66768;48.884;2.258;2023-10-19T12:50:30;19.70;99.90
41058;DHT22;66768;48.884;2.258;2023-10-19T12:52:57;19.70;99.90
41058;DHT22;66768;48.884;2.258;2023-10-19T12:55:27;19.70;99.90
41058;DHT22;66768;48.884;2.258;2023-10-19T12:57:56;19.70;99.90
41058;DHT22;66768;48.884;2.258;2023-10-19T13:00:25;19.70;99.90
41058;DHT22;66768;48.884;2.258;2023-10-19T13:02:54;19.70;99.90
41058;DHT22;66768;48.884;2.258;2023-10-19T13:05:26;19.90;99.90
41058;DHT22;66768;48.884;2.258;2023-10-19T13:07:54;19.90;99.90
41058;DHT22;66768;48.884;2.258;2023-10-19T13:10:29;19.90;99.90
41058;DHT22;66768;48.884;2.258;2023-10-19T13:12:59;19.90;99.90
41058;DHT22;66768;48.884;2.258;2023-10-19T13:15:29;19.90;99.90
41058;DHT22;66768;48.884;2.258;2023-10-19T13:17:56;19.90;99.90
41058;DHT22;66768;48.884;2.258;2023-10-19T13:20:25;19.90;99.90
41058;DHT22;66768;48.884;2.258;2023-10-19T13:22:52;19.50;99.90
41058;DHT22;66768;48.884;2.258;2023-10-19T13:25:19;20.00;99.90
41058;DHT22;66768;48.884;2.258;2023-10-19T13:28:06;20.20;99.90
41058;DHT22;66768;48.884;2.258;2023-10-19T13:30:38;20.10;99.90
41058;DHT22;66768;48.884;2.258;2023-10-19T13:33:06;20.00;99.90
41058;DHT22;66768;48.884;2.258;2023-10-19T13:35:35;20.00;99.90
41058;DHT22;66768;48.884;2.258;2023-10-19T13:38:05;19.90;99.90
41058;DHT22;66768;48.884;2.258;2023-10-19T13:40:33;19.90;99.90
41058;DHT22;66768;48.884;2.258;2023-10-19T13:43:01;19.90;99.90
41058;DHT22;66768;48.884;2.258;2023-10-19T13:45:32;19.90;99.90
41058;DHT22;66768;48.884;2.258;2023-10-19T13:47:59;20.00;99.90
41058;DHT22;66768;48.884;2.258;2023-10-19T13:50:26;20.00;99.90
41058;DHT22;66768;48.884;2.258;2023-10-19T13:52:53;20.00;99.90
41058;DHT22;66768;48.884;2.258;2023-10-19T13:55:22;20.00;99.90
41058;DHT22;66768;48.884;2.258;2023-10-19T13:57:49;20.00;99.90
41058;DHT22;66768;48.884;2.258;2023-10-19T14:00:18;20.00;99.90
41058;DHT22;66768;48.884;2.258;2023-10-19T14:02:52;20.00;99.90
41058;DHT22;66768;48.884;2.258;2023-10-19T14:05:20;20.00;99.90
41058;DHT22;66768;48.884;2.258;2023-10-19T14:07:50;20.00;99.90
41058;DHT22;66768;48.884;2.258;2023-10-19T14:10:18;20.00;99.90
41058;DHT22;66768;48.884;2.258;2023-10-19T14:12:45;20.00;99.90
41058;DHT22;66768;48.884;2.258;2023-10-19T14:15:14;20.00;99.90
41058;DHT22;66768;48.884;2.258;2023-10-19T14:17:43;20.00;99.90
41058;DHT22;66768;48.884;2.258;2023-10-19T14:20:12;19.90;99.90
41058;DHT22;66768;48.884;2.258;2023-10-19T14:22:40;20.00;99.90
41058;DHT22;66768;48.884;2.258;2023-10-19T14:25:08;20.00;99.90
41058;DHT22;66768;48.884;2.258;2023-10-19T14:27:41;20.00;99.90
41058;DHT22;66768;48.884;2.258;2023-10-19T14:30:10;20.00;99.90
41058;DHT22;66768;48.884;2.258;2023-10-19T14:32:39;20.00;99.90
41058;DHT22;66768;48.884;2.258;2023-10-19T14:35:08;20.00;99.90
41058;DHT22;66768;48.884;2.258;2023-10-19T14:37:39;19.90;99.90
41058;DHT22;66768;48.884;2.258;2023-10-19T14:40:08;19.90;99.90
41058;DHT22;66768;48.884;2.258;2023-10-19T14:42:36;19.90;99.90
41058;DHT22;66768;48.884;2.258;2023-10-19T14:45:05;19.90;99.90
41058;DHT22;66768;48.884;2.258;2023-10-19T14:47:35;19.90;99.90
41058;DHT22;66768;48.884;2.258;2023-10-19T14:50:03;19.90;99.90
41058;DHT22;66768;48.884;2.258;2023-10-19T14:52:30;19.90;99.90
41058;DHT22;66768;48.884;2.258;2023-10-19T14:54:59;19.80;99.90
41058;DHT22;66768;48.884;2.258;2023-10-19T14:57:26;19.90;99.90
41058;DHT22;66768;48.884;2.258;2023-10-19T14:59:53;19.80;99.90
41058;DHT22;66768;48.884;2.258;2023-10-19T15:02:20;19.80;99.90
41058;DHT22;66768;48.884;2.258;2023-10-19T15:04:49;19.80;99.90
41058;DHT22;66768;48.884;2.258;2023-10-19T15:07:16;19.80;99.90
41058;DHT22;66768;48.884;2.258;2023-10-19T15:09:43;19.70;99.90
41058;DHT22;66768;48.884;2.258;2023-10-19T15:12:12;19.70;99.90
41058;DHT22;66768;48.884;2.258;2023-10-19T15:14:40;19.70;99.90
41058;DHT22;66768;48.884;2.258;2023-10-19T15:17:08;19.80;99.90
41058;DHT22;66768;48.884;2.258;2023-10-19T15:19:36;19.80;99.90
41058;DHT22;66768;48.884;2.258;2023-10-19T15:22:03;19.80;99.90
41058;DHT22;66768;48.884;2.258;2023-10-19T15:24:29;19.80;99.90
41058;DHT22;66768;48.884;2.258;2023-10-19T15:26:57;19.80;99.90
41058;DHT22;66768;48.884;2.258;2023-10-19T15:29:26;19.80;99.90
41058;DHT22;66768;48.884;2.258;2023-10-19T15:31:53;19.70;99.90
41058;DHT22;66768;48.884;2.258;2023-10-19T15:34:20;19.70;99.90
41058;DHT22;66768;48.884;2.258;2023-10-19T15:36:46;19.70;99.90
41058;DHT22;66768;48.884;2.258;2023-10-19T15:39:13;19.70;99.90
41058;DHT22;66768;48.884;2.258;2023-10-19T15:41:41;19.70;99.90